Time;durP1;ratioP1;P1;durP2;ratioP2;P2;SDS_P1;SDS_P2;PMS_P1;PMS_P2;Temp;Humidity;BMP_temperature;BMP_pressure;BME280_temperature;BME280_humidity;BME280_pressure;Samples;Min_cycle;Max_cycle;Signal;HPM_P1;HPM_P2
2023/02/04 00:01:33;;;;;;;6.13;2.20;;;4.40;99.90;;;;;;4969328;28;20218;-81
2023/02/04 00:04:00;;;;;;;3.53;0.82;;;4.30;99.90;;;;;;4970467;28;20273;-82
2023/02/04 00:06:27;;;;;;;2.40;0.70;;;4.20;99.90;;;;;;4968139;28;20226;-85
2023/02/04 00:08:54;;;;;;;2.67;0.88;;;4.20;99.90;;;;;;4962884;28;20280;-84
2023/02/04 00:11:21;;;;;;;2.40;1.00;;;4.10;99.90;;;;;;4969342;28;20626;-83
2023/02/04 00:13:48;;;;;;;0.80;0.80;;;4.10;99.90;;;;;;4961553;28;20258;-83
2023/02/04 00:16:29;;;;;;;1.83;1.00;;;4.10;99.90;;;;;;4968423;28;20488;-83
2023/02/04 00:18:56;;;;;;;2.10;1.00;;;4.00;99.90;;;;;;4967976;28;20202;-82
2023/02/04 00:21:23;;;;;;;1.08;1.05;;;4.00;99.90;;;;;;4963983;28;20229;-84
2023/02/04 00:23:50;;;;;;;1.30;0.90;;;3.90;99.90;;;;;;4974043;28;20271;-83
2023/02/04 00:26:17;;;;;;;1.63;0.77;;;3.90;99.90;;;;;;4972493;28;20434;-84
2023/02/04 00:28:44;;;;;;;2.25;1.10;;;3.80;99.90;;;;;;4971097;28;20210;-81
2023/02/04 00:31:12;;;;;;;0.93;0.88;;;3.80;99.90;;;;;;4964182;28;20209;-85
2023/02/04 00:33:41;;;;;;;1.30;1.20;;;3.70;99.90;;;;;;4961508;28;20238;-82
2023/02/04 00:36:08;;;;;;;4.00;1.60;;;3.70;99.90;;;;;;4969805;28;20213;-84
2023/02/04 00:38:36;;;;;;;1.85;1.30;;;3.70;99.90;;;;;;4960611;28;20209;-83
2023/02/04 00:41:05;;;;;;;1.23;0.85;;;3.80;99.90;;;;;;4969795;28;20213;-82
2023/02/04 00:43:33;;;;;;;0.80;0.70;;;3.70;99.90;;;;;;4965980;28;20239;-83
2023/02/04 00:46:00;;;;;;;1.75;0.85;;;3.60;99.90;;;;;;4966450;28;20229;-83
2023/02/04 00:48:27;;;;;;;2.00;1.00;;;3.50;99.90;;;;;;4968524;28;20209;-83
2023/02/04 00:50:55;;;;;;;1.92;1.10;;;3.40;99.90;;;;;;4964583;28;20205;-80
2023/02/04 00:53:22;;;;;;;1.17;1.05;;;3.30;99.90;;;;;;4965096;28;20289;-84
2023/02/04 00:55:49;;;;;;;1.45;1.00;;;3.30;99.90;;;;;;4953334;28;20474;-82
2023/02/04 00:58:16;;;;;;;1.38;1.10;;;3.40;99.90;;;;;;4970532;28;20485;-81
2023/02/04 01:00:43;;;;;;;1.83;1.23;;;3.30;99.90;;;;;;4962770;28;20236;-80
2023/02/04 01:03:11;;;;;;;1.15;1.02;;;3.40;99.90;;;;;;4961488;28;20242;-85
2023/02/04 01:05:38;;;;;;;3.42;2.00;;;3.20;99.90;;;;;;4960373;28;20228;-82
2023/02/04 01:08:05;;;;;;;4.10;1.40;;;3.20;99.90;;;;;;4966293;28;20257;-82
2023/02/04 01:10:33;;;;;;;1.80;1.35;;;3.20;99.90;;;;;;4965114;28;20260;-82
2023/02/04 01:13:00;;;;;;;2.28;1.73;;;3.20;99.90;;;;;;4965535;28;20217;-79
2023/02/04 01:15:27;;;;;;;1.80;1.20;;;3.20;99.90;;;;;;4980905;28;20283;-84
2023/02/04 01:17:55;;;;;;;1.20;1.10;;;3.10;99.90;;;;;;4979669;28;20217;-83
2023/02/04 01:20:22;;;;;;;1.55;1.45;;;3.20;99.90;;;;;;4974699;28;20207;-86
2023/02/04 01:22:50;;;;;;;1.48;1.38;;;3.00;99.90;;;;;;4968294;28;20208;-84
2023/02/04 01:25:16;;;;;;;5.20;1.67;;;3.10;99.90;;;;;;4977649;28;20204;-84
2023/02/04 01:27:46;;;;;;;1.58;1.48;;;3.00;99.90;;;;;;4979014;28;20244;-85
2023/02/04 01:30:14;;;;;;;2.28;2.08;;;3.00;99.90;;;;;;4965290;28;20218;-84
2023/02/04 01:32:41;;;;;;;2.78;2.15;;;2.90;99.90;;;;;;4971749;28;20209;-85
2023/02/04 01:35:08;;;;;;;2.15;1.95;;;2.90;99.90;;;;;;4967385;28;20233;-85
2023/02/04 01:37:36;;;;;;;2.10;1.73;;;2.80;99.90;;;;;;4972675;28;20232;-85
2023/02/04 01:40:03;;;;;;;2.83;2.63;;;2.70;99.90;;;;;;4977295;28;20224;-83
2023/02/04 01:42:30;;;;;;;3.85;3.55;;;2.60;99.90;;;;;;4974851;28;20212;-84
2023/02/04 01:44:57;;;;;;;8.15;6.57;;;2.50;99.90;;;;;;4966878;28;20206;-81
2023/02/04 01:47:24;;;;;;;14.35;9.73;;;2.30;99.90;;;;;;4972476;28;20203;-83
2023/02/04 01:49:53;;;;;;;13.32;10.63;;;2.00;99.90;;;;;;4960598;28;20215;-84
2023/02/04 01:52:21;;;;;;;12.65;10.10;;;1.80;99.90;;;;;;4970116;28;20270;-81
2023/02/04 01:54:48;;;;;;;14.20;11.05;;;1.70;99.90;;;;;;4971389;28;20278;-84
2023/02/04 01:57:16;;;;;;;15.88;12.38;;;1.60;99.90;;;;;;4974278;28;20560;-84
2023/02/04 01:59:48;;;;;;;15.38;11.73;;;1.50;99.90;;;;;;4969551;28;20270;-82
2023/02/04 02:02:39;;;;;;;12.07;10.75;;;1.50;99.90;;;;;;4960302;28;20250;-82
2023/02/04 02:05:10;;;;;;;14.15;10.57;;;1.40;99.90;;;;;;4965786;28;20278;-83
2023/02/04 02:07:37;;;;;;;12.73;10.65;;;1.40;99.90;;;;;;4960889;28;20520;-82
2023/02/04 02:10:06;;;;;;;12.13;10.63;;;1.40;99.90;;;;;;4965949;28;20199;-81
2023/02/04 02:12:33;;;;;;;16.83;12.57;;;1.40;99.90;;;;;;4961848;28;20203;-80
2023/02/04 02:15:01;;;;;;;15.52;12.38;;;1.40;99.90;;;;;;4964245;28;20383;-84
2023/02/04 02:17:28;;;;;;;14.48;11.48;;;1.40;99.90;;;;;;4967933;28;20207;-81
2023/02/04 02:19:55;;;;;;;13.70;12.25;;;1.40;99.90;;;;;;4960268;28;20280;-82
2023/02/04 02:22:48;;;;;;;13.00;10.38;;;1.40;99.90;;;;;;4968668;28;20259;-82
2023/02/04 02:25:15;;;;;;;11.52;9.45;;;1.40;99.90;;;;;;4960982;28;20211;-83
2023/02/04 02:27:44;;;;;;;9.25;8.27;;;1.40;99.90;;;;;;4968638;28;20267;-81
2023/02/04 02:30:16;;;;;;;10.30;9.30;;;1.40;99.90;;;;;;4967662;28;20217;-82
2023/02/04 02:32:45;;;;;;;9.43;8.48;;;1.40;99.90;;;;;;4976566;28;20253;-82
2023/02/04 02:35:12;;;;;;;10.65;9.55;;;1.30;99.90;;;;;;4964635;28;20235;-83
2023/02/04 02:37:39;;;;;;;9.80;8.05;;;1.40;99.90;;;;;;4960099;28;20203;-83
2023/02/04 02:40:08;;;;;;;9.32;7.95;;;1.30;99.90;;;;;;4964375;28;20394;-82
2023/02/04 02:42:35;;;;;;;12.52;9.63;;;1.30;99.90;;;;;;4963294;28;20211;-82
2023/02/04 02:45:23;;;;;;;7.78;6.93;;;1.30;99.90;;;;;;4965894;28;20395;-82
2023/02/04 02:47:51;;;;;;;9.45;8.23;;;1.30;99.90;;;;;;4969014;28;20263;-84
2023/02/04 02:50:22;;;;;;;9.13;7.90;;;1.20;99.90;;;;;;4962418;28;20567;-84
2023/02/04 02:52:50;;;;;;;8.27;7.00;;;1.20;99.90;;;;;;4960345;28;20240;-83
2023/02/04 02:55:19;;;;;;;7.85;6.47;;;1.20;99.90;;;;;;4958755;28;20235;-81
2023/02/04 02:57:49;;;;;;;6.88;6.28;;;1.20;99.90;;;;;;4960779;28;20534;-84
2023/02/04 03:00:20;;;;;;;7.68;6.82;;;1.20;99.90;;;;;;4973939;28;20207;-84
2023/02/04 03:03:12;;;;;;;5.90;5.25;;;1.20;99.90;;;;;;4961293;28;20544;-84
2023/02/04 03:05:42;;;;;;;6.00;5.32;;;1.20;99.90;;;;;;4970005;28;20230;-83
2023/02/04 03:08:12;;;;;;;4.90;4.35;;;1.20;99.90;;;;;;4948750;28;20203;-83
2023/02/04 03:10:39;;;;;;;3.72;3.40;;;1.20;99.90;;;;;;4971396;28;20251;-83
2023/02/04 03:13:06;;;;;;;4.60;4.20;;;1.30;99.90;;;;;;4971072;28;20383;-82
2023/02/04 03:15:33;;;;;;;4.40;4.05;;;1.20;99.90;;;;;;4968111;28;20463;-80
2023/02/04 03:18:01;;;;;;;5.63;4.95;;;1.20;99.90;;;;;;4970166;28;20258;-83
2023/02/04 03:20:30;;;;;;;5.30;3.60;;;1.20;99.90;;;;;;4960999;28;20203;-82
2023/02/04 03:22:58;;;;;;;4.28;3.78;;;1.20;99.90;;;;;;4960519;28;20235;-83
2023/02/04 03:25:27;;;;;;;4.57;2.80;;;1.20;99.90;;;;;;4963005;28;20220;-83
2023/02/04 03:27:56;;;;;;;4.45;3.80;;;1.20;99.90;;;;;;4968146;28;20217;-84
2023/02/04 03:30:24;;;;;;;3.20;2.95;;;1.10;99.90;;;;;;4969842;28;20274;-84
2023/02/04 03:32:52;;;;;;;3.53;2.25;;;1.10;99.90;;;;;;4967686;28;20211;-84
2023/02/04 03:35:20;;;;;;;4.75;2.60;;;1.10;99.90;;;;;;4967544;28;20451;-83
2023/02/04 03:37:46;;;;;;;2.35;2.15;;;1.00;99.90;;;;;;4966090;28;20523;-83
2023/02/04 03:40:14;;;;;;;3.38;2.78;;;1.00;99.90;;;;;;4966644;28;20506;-84
2023/02/04 03:42:41;;;;;;;3.13;2.70;;;1.00;99.90;;;;;;4965228;28;20238;-83
2023/02/04 03:45:09;;;;;;;4.28;2.78;;;1.00;99.90;;;;;;4974310;28;20480;-83
2023/02/04 03:47:36;;;;;;;2.95;2.67;;;1.00;99.90;;;;;;4963022;28;20435;-84
2023/02/04 03:50:04;;;;;;;3.15;2.85;;;0.90;99.90;;;;;;4964520;28;20537;-83
2023/02/04 03:52:31;;;;;;;3.15;2.85;;;0.90;99.90;;;;;;4959778;28;20221;-83
2023/02/04 03:54:58;;;;;;;3.97;3.58;;;0.80;99.90;;;;;;4964800;28;20226;-84
2023/02/04 03:57:26;;;;;;;5.15;3.70;;;0.80;99.90;;;;;;4970864;28;20493;-84
2023/02/04 03:59:53;;;;;;;5.40;3.25;;;0.80;99.90;;;;;;4965595;28;20293;-83
2023/02/04 04:02:20;;;;;;;5.13;4.22;;;0.80;99.90;;;;;;4968838;28;20215;-83
2023/02/04 04:04:47;;;;;;;4.88;4.03;;;0.80;99.90;;;;;;4969999;28;20273;-82
2023/02/04 04:07:14;;;;;;;4.68;3.88;;;0.80;99.90;;;;;;4965124;28;20231;-83
2023/02/04 04:09:41;;;;;;;4.82;4.32;;;0.80;99.90;;;;;;4952361;28;20234;-83
2023/02/04 04:12:08;;;;;;;8.90;4.55;;;0.80;99.90;;;;;;4966602;28;20211;-84
2023/02/04 04:14:35;;;;;;;5.90;3.67;;;0.80;99.90;;;;;;4971189;28;20234;-85
2023/02/04 04:17:02;;;;;;;5.45;4.18;;;0.80;99.90;;;;;;4967227;28;20678;-86
2023/02/04 04:19:31;;;;;;;5.07;4.57;;;0.80;99.90;;;;;;4964643;28;20520;-84
2023/02/04 04:21:59;;;;;;;4.15;3.60;;;0.80;99.90;;;;;;4973632;28;20495;-85
2023/02/04 04:24:27;;;;;;;4.22;3.72;;;0.80;99.90;;;;;;4974692;28;20267;-86
2023/02/04 04:26:55;;;;;;;4.25;3.85;;;0.80;99.90;;;;;;4962729;28;20206;-83
2023/02/04 04:29:22;;;;;;;5.75;4.60;;;0.80;99.90;;;;;;4962062;28;20210;-83
2023/02/04 04:31:49;;;;;;;4.97;3.20;;;0.80;99.90;;;;;;4966673;28;20245;-83
2023/02/04 04:34:16;;;;;;;5.07;3.35;;;0.80;99.90;;;;;;4971628;28;20439;-85
2023/02/04 04:36:43;;;;;;;6.65;4.60;;;0.80;99.90;;;;;;4967970;28;20211;-82
2023/02/04 04:39:10;;;;;;;5.28;4.82;;;0.80;99.90;;;;;;4961056;28;20607;-82
2023/02/04 04:41:38;;;;;;;4.82;4.40;;;0.70;99.90;;;;;;4960822;29;20281;-82
2023/02/04 04:44:06;;;;;;;5.78;4.30;;;0.70;99.90;;;;;;4977099;28;20210;-85
2023/02/04 04:46:34;;;;;;;4.80;4.15;;;0.70;99.90;;;;;;4963426;28;20215;-85
2023/02/04 04:49:01;;;;;;;4.88;4.03;;;0.60;99.90;;;;;;4964248;28;20207;-85
2023/02/04 04:51:30;;;;;;;5.30;3.80;;;0.70;99.90;;;;;;4968834;28;20203;-84
2023/02/04 04:53:58;;;;;;;6.43;4.30;;;0.70;99.90;;;;;;4971088;28;20490;-87
2023/02/04 04:56:25;;;;;;;6.45;5.30;;;0.70;99.90;;;;;;4961671;28;20211;-88
2023/02/04 04:58:54;;;;;;;4.93;4.40;;;0.70;99.90;;;;;;4969893;28;20269;-84
2023/02/04 05:01:21;;;;;;;5.75;5.10;;;0.70;99.90;;;;;;4971145;28;20234;-87
2023/02/04 05:03:48;;;;;;;5.00;4.50;;;0.70;99.90;;;;;;4962631;28;20218;-83
2023/02/04 05:06:16;;;;;;;8.38;5.95;;;0.70;99.90;;;;;;4968228;28;20207;-86
2023/02/04 05:08:43;;;;;;;7.40;4.68;;;0.70;99.90;;;;;;4969495;28;20265;-84
2023/02/04 05:11:10;;;;;;;5.72;4.47;;;0.70;99.90;;;;;;4959323;28;20369;-86
2023/02/04 05:13:37;;;;;;;9.75;5.20;;;0.70;99.90;;;;;;4968665;28;20211;-87
2023/02/04 05:16:06;;;;;;;6.07;4.30;;;0.70;99.90;;;;;;4958618;28;20625;-87
2023/02/04 05:18:33;;;;;;;6.25;4.90;;;0.70;99.90;;;;;;4957650;28;20317;-86
2023/02/04 05:20:59;;;;;;;6.57;5.25;;;0.70;99.90;;;;;;4961860;29;20238;-86
2023/02/04 05:23:27;;;;;;;5.65;4.78;;;0.70;99.90;;;;;;4964258;28;20207;-86
2023/02/04 05:25:54;;;;;;;6.03;4.72;;;0.70;99.90;;;;;;4971279;28;20422;-85
2023/02/04 05:28:21;;;;;;;6.53;5.40;;;0.70;99.90;;;;;;4966852;28;20549;-87
2023/02/04 05:30:49;;;;;;;4.72;4.28;;;0.70;99.90;;;;;;4965757;28;20206;-85
2023/02/04 05:33:16;;;;;;;7.05;5.25;;;0.70;99.90;;;;;;4977985;28;20262;-85
2023/02/04 05:35:43;;;;;;;5.22;4.72;;;0.60;99.90;;;;;;4972175;28;20224;-85
2023/02/04 05:38:12;;;;;;;4.93;4.53;;;0.70;99.90;;;;;;4964257;28;20239;-84
2023/02/04 05:40:39;;;;;;;6.47;5.38;;;0.60;99.90;;;;;;4965218;28;20538;-86
2023/02/04 05:43:06;;;;;;;7.13;5.60;;;0.60;99.90;;;;;;4971420;28;20207;-86
2023/02/04 05:45:35;;;;;;;5.82;5.22;;;0.60;99.90;;;;;;4979533;28;20253;-85
2023/02/04 05:48:02;;;;;;;7.30;4.50;;;0.60;99.90;;;;;;4977875;28;20209;-87
2023/02/04 05:50:29;;;;;;;7.43;5.95;;;0.60;99.90;;;;;;4968700;28;20211;-86
2023/02/04 05:52:57;;;;;;;5.90;5.10;;;0.50;99.90;;;;;;4973831;28;20211;-85
2023/02/04 05:55:25;;;;;;;8.65;6.20;;;0.50;99.90;;;;;;4963978;28;20231;-85
2023/02/04 05:57:51;;;;;;;5.55;5.00;;;0.60;99.90;;;;;;4968860;28;20234;-86
2023/02/04 06:00:19;;;;;;;5.47;4.70;;;0.60;99.90;;;;;;4979781;28;20206;-85
2023/02/04 06:02:46;;;;;;;7.05;6.20;;;0.60;99.90;;;;;;4968304;28;20456;-85
2023/02/04 06:05:13;;;;;;;6.95;5.80;;;0.60;99.90;;;;;;4964727;29;20447;-87
2023/02/04 06:07:40;;;;;;;7.97;7.22;;;0.60;99.90;;;;;;4982775;28;20225;-85
2023/02/04 06:10:08;;;;;;;9.18;6.78;;;0.60;99.90;;;;;;4972628;28;20195;-87
2023/02/04 06:12:35;;;;;;;5.80;5.22;;;0.50;99.90;;;;;;4986363;28;20279;-87
2023/02/04 06:15:06;;;;;;;6.75;5.65;;;0.50;99.90;;;;;;4981469;28;20263;-85
2023/02/04 06:17:33;;;;;;;6.60;5.25;;;0.50;99.90;;;;;;4969708;28;20211;-87
2023/02/04 06:20:01;;;;;;;7.40;6.15;;;0.50;99.90;;;;;;4975958;28;20215;-86
2023/02/04 06:22:28;;;;;;;5.80;5.25;;;0.40;99.90;;;;;;4973428;28;20234;-85
2023/02/04 06:24:55;;;;;;;7.40;6.03;;;0.30;99.90;;;;;;4980523;28;20241;-86
2023/02/04 06:27:22;;;;;;;6.88;6.18;;;0.30;99.90;;;;;;4972737;28;20240;-86
2023/02/04 06:29:53;;;;;;;6.70;5.75;;;0.30;99.90;;;;;;4965232;29;20209;-86
2023/02/04 06:32:21;;;;;;;8.45;6.60;;;0.30;99.90;;;;;;4966204;28;20259;-86
2023/02/04 06:34:48;;;;;;;7.72;6.38;;;0.40;99.90;;;;;;4959587;28;20230;-86
2023/02/04 06:37:16;;;;;;;8.20;5.60;;;0.40;99.90;;;;;;4966410;28;20525;-85
2023/02/04 06:39:43;;;;;;;7.35;5.13;;;0.50;99.90;;;;;;4970631;28;20245;-85
2023/02/04 06:42:12;;;;;;;6.95;5.47;;;0.60;99.90;;;;;;4968425;28;20229;-86
2023/02/04 06:44:39;;;;;;;6.97;4.93;;;0.60;99.90;;;;;;4965474;28;20211;-85
2023/02/04 06:47:07;;;;;;;7.68;5.35;;;0.60;99.90;;;;;;4970716;28;20206;-87
2023/02/04 06:49:34;;;;;;;6.30;5.00;;;0.60;99.90;;;;;;4970412;28;20214;-89
2023/02/04 06:52:04;;;;;;;6.43;5.82;;;0.80;99.90;;;;;;4974557;28;20207;-89
2023/02/04 06:54:33;;;;;;;7.55;5.00;;;0.60;99.90;;;;;;4966127;28;20230;-89
2023/02/04 06:57:05;;;;;;;5.65;5.00;;;0.70;99.90;;;;;;4971712;28;20217;-89
2023/02/04 06:59:37;;;;;;;10.63;6.15;;;0.70;99.90;;;;;;4969664;28;20234;-88
2023/02/04 07:02:06;;;;;;;8.05;4.78;;;0.70;99.90;;;;;;4967516;28;20214;-89
2023/02/04 07:04:34;;;;;;;6.65;5.05;;;0.60;99.90;;;;;;4963330;28;20222;-89
2023/02/04 07:07:01;;;;;;;6.97;5.40;;;0.70;99.90;;;;;;4976813;28;20203;-90
2023/02/04 07:09:28;;;;;;;4.45;4.05;;;0.50;99.90;;;;;;4971846;28;20526;-87
2023/02/04 07:11:57;;;;;;;6.18;3.80;;;0.40;99.90;;;;;;4961459;28;20206;-90
2023/02/04 07:14:25;;;;;;;5.75;4.50;;;0.30;99.90;;;;;;4969937;28;20214;-85
2023/02/04 07:17:00;;;;;;;4.85;3.75;;;0.30;99.90;;;;;;4968244;28;20997;-89
2023/02/04 07:19:32;;;;;;;3.38;3.08;;;0.40;99.90;;;;;;4958771;28;20241;-87
2023/02/04 07:22:04;;;;;;;6.85;3.45;;;0.40;99.90;;;;;;4961698;28;20203;-88
2023/02/04 07:24:31;;;;;;;8.20;3.47;;;0.50;99.90;;;;;;4965780;28;20211;-87
2023/02/04 07:27:02;;;;;;;5.95;4.13;;;0.60;99.90;;;;;;4970716;28;20257;-87
2023/02/04 07:29:29;;;;;;;6.22;3.22;;;0.60;99.90;;;;;;4971748;28;20441;-84
2023/02/04 07:31:57;;;;;;;6.80;4.15;;;0.60;99.90;;;;;;4971800;28;20206;-88
2023/02/04 07:34:25;;;;;;;4.10;3.33;;;0.50;99.90;;;;;;4960644;28;20213;-87
2023/02/04 07:36:52;;;;;;;2.60;2.40;;;0.40;99.90;;;;;;4963004;28;20553;-87
2023/02/04 07:39:20;;;;;;;4.22;3.05;;;0.40;99.90;;;;;;4964541;28;20609;-87
2023/02/04 07:41:49;;;;;;;3.25;2.95;;;0.40;99.90;;;;;;4957663;28;20253;-88
2023/02/04 07:44:16;;;;;;;3.45;2.97;;;0.80;99.90;;;;;;4965001;28;20551;-85
2023/02/04 07:46:46;;;;;;;3.95;3.20;;;1.10;99.90;;;;;;4965597;28;20229;-87
2023/02/04 07:49:14;;;;;;;5.63;3.10;;;1.50;99.90;;;;;;4977419;28;20393;-88
2023/02/04 07:51:41;;;;;;;6.40;3.58;;;2.00;99.90;;;;;;4968374;28;20209;-89
2023/02/04 07:54:09;;;;;;;6.43;2.67;;;2.60;99.90;;;;;;4969123;28;20205;-86
2023/02/04 07:56:37;;;;;;;3.28;2.97;;;2.90;99.90;;;;;;4971858;28;20549;-88
2023/02/04 07:59:04;;;;;;;3.35;2.60;;;3.30;99.90;;;;;;4961760;29;20254;-88
2023/02/04 08:01:31;;;;;;;3.60;2.88;;;3.60;99.90;;;;;;4962228;29;20592;-88
2023/02/04 08:03:58;;;;;;;5.20;2.88;;;4.10;99.90;;;;;;4962325;28;20289;-85
2023/02/04 08:06:28;;;;;;;6.35;2.20;;;4.20;99.90;;;;;;4978355;28;20207;-84
2023/02/04 08:08:56;;;;;;;3.65;2.92;;;4.40;99.90;;;;;;4967159;28;20195;-84
2023/02/04 08:11:25;;;;;;;2.55;1.90;;;4.20;99.90;;;;;;4968553;28;20214;-86
2023/02/04 08:13:52;;;;;;;2.85;2.33;;;4.40;99.90;;;;;;4970379;28;20230;-86
2023/02/04 08:16:24;;;;;;;4.30;2.60;;;4.70;99.90;;;;;;4966142;28;20233;-85
2023/02/04 08:18:51;;;;;;;4.78;2.72;;;4.40;99.90;;;;;;4967776;28;20209;-85
2023/02/04 08:21:42;;;;;;;2.50;2.30;;;3.40;99.90;;;;;;4978414;28;20257;-86
2023/02/04 08:24:13;;;;;;;3.40;2.65;;;2.40;99.90;;;;;;4972942;28;20213;-86
2023/02/04 08:26:44;;;;;;;5.68;3.15;;;1.90;99.90;;;;;;4973361;28;20207;-87
2023/02/04 08:29:27;;;;;;;4.07;2.85;;;1.60;99.90;;;;;;4974357;28;20388;-87
2023/02/04 08:31:55;;;;;;;2.92;2.60;;;1.50;99.90;;;;;;4985618;28;20210;-89
2023/02/04 08:34:28;;;;;;;9.13;2.70;;;1.40;99.90;;;;;;4958583;28;20207;-86
2023/02/04 08:36:55;;;;;;;3.67;2.78;;;1.30;99.90;;;;;;4969468;28;20237;-85
2023/02/04 08:39:28;;;;;;;3.67;2.40;;;1.40;99.90;;;;;;4965014;28;20274;-86
2023/02/04 08:42:00;;;;;;;4.43;3.13;;;1.30;99.90;;;;;;4968242;28;20214;-85
2023/02/04 08:44:28;;;;;;;2.60;2.10;;;1.40;99.90;;;;;;4975025;28;20203;-85
2023/02/04 08:46:56;;;;;;;4.75;2.58;;;1.40;99.90;;;;;;4972036;28;20215;-86
2023/02/04 08:49:26;;;;;;;3.10;2.67;;;2.10;99.90;;;;;;4984845;28;20219;-85
2023/02/04 08:52:07;;;;;;;3.20;1.92;;;2.90;99.90;;;;;;4976585;28;20204;-85
2023/02/04 08:55:01;;;;;;;2.58;1.85;;;3.60;99.90;;;;;;4977870;29;20212;-85
2023/02/04 08:58:05;;;;;;;2.90;2.03;;;4.00;99.90;;;;;;4977284;28;20542;-83
2023/02/04 09:01:10;;;;;;;3.20;2.38;;;4.40;99.90;;;;;;4976137;28;20215;-86
2023/02/04 09:03:52;;;;;;;2.58;1.98;;;5.40;99.90;;;;;;4969061;28;20214;-84
2023/02/04 09:06:42;;;;;;;2.50;1.85;;;4.50;99.90;;;;;;4972669;28;20209;-84
2023/02/04 09:09:19;;;;;;;1.55;1.45;;;3.80;99.90;;;;;;4973941;28;20202;-84
2023/02/04 09:11:49;;;;;;;3.67;1.98;;;3.50;99.90;;;;;;4973880;28;20209;-85
2023/02/04 09:14:19;;;;;;;2.83;2.03;;;3.30;99.90;;;;;;4982097;28;20236;-85
2023/02/04 09:16:57;;;;;;;2.75;2.40;;;2.80;99.90;;;;;;4979914;28;20224;-84
2023/02/04 09:19:27;;;;;;;3.47;2.10;;;2.80;99.90;;;;;;4981707;28;20268;-84
2023/02/04 09:21:57;;;;;;;8.30;2.72;;;2.90;99.90;;;;;;4969143;28;20210;-82
2023/02/04 09:24:24;;;;;;;6.07;2.30;;;3.00;99.90;;;;;;4968914;28;20292;-84
2023/02/04 09:26:51;;;;;;;5.72;2.45;;;3.00;99.90;;;;;;4972991;28;20438;-85
2023/02/04 09:29:19;;;;;;;2.30;2.10;;;2.90;99.90;;;;;;4965103;28;20304;-84
2023/02/04 09:31:49;;;;;;;5.47;2.53;;;3.20;99.90;;;;;;4967099;28;20207;-82
2023/02/04 09:34:16;;;;;;;2.83;2.60;;;3.10;99.90;;;;;;4977909;28;20256;-86
2023/02/04 09:36:44;;;;;;;1.88;1.50;;;3.00;99.90;;;;;;4977954;28;20275;-86
2023/02/04 09:39:15;;;;;;;2.92;2.53;;;2.80;99.90;;;;;;4969109;28;20216;-84
2023/02/04 09:41:47;;;;;;;2.70;2.50;;;2.80;99.90;;;;;;4969832;28;20209;-86
2023/02/04 09:44:19;;;;;;;5.65;2.50;;;2.60;99.90;;;;;;4966489;28;20241;-85
2023/02/04 09:46:50;;;;;;;3.60;2.72;;;2.60;99.90;;;;;;4968479;28;20224;-85
2023/02/04 09:49:17;;;;;;;5.80;2.40;;;2.60;99.90;;;;;;4965361;28;20418;-85
2023/02/04 09:51:46;;;;;;;2.42;2.08;;;2.60;99.90;;;;;;4972690;28;20446;-86
2023/02/04 09:54:20;;;;;;;5.05;2.40;;;2.50;99.90;;;;;;4973191;28;20231;-86
2023/02/04 09:56:49;;;;;;;6.47;3.08;;;2.30;99.90;;;;;;4972307;28;20554;-84
2023/02/04 09:59:22;;;;;;;4.50;2.20;;;2.20;99.90;;;;;;4969476;28;20534;-87
2023/02/04 10:02:00;;;;;;;2.47;2.28;;;2.20;99.90;;;;;;4964616;28;20373;-85
2023/02/04 10:04:29;;;;;;;3.00;2.30;;;2.10;99.90;;;;;;4973935;28;20416;-83
2023/02/04 10:07:08;;;;;;;5.18;2.80;;;1.90;99.90;;;;;;4971389;28;20212;-86
2023/02/04 10:09:35;;;;;;;3.08;2.63;;;2.00;99.90;;;;;;4975962;28;20192;-85
2023/02/04 10:12:05;;;;;;;3.00;2.35;;;2.20;99.90;;;;;;4973285;28;20211;-87
2023/02/04 10:14:32;;;;;;;3.70;2.60;;;2.50;99.90;;;;;;4971445;28;20753;-87
2023/02/04 10:17:00;;;;;;;4.88;4.03;;;2.60;99.90;;;;;;4961464;28;20706;-83
2023/02/04 10:19:29;;;;;;;3.85;2.92;;;2.70;99.90;;;;;;4968144;28;20243;-84
2023/02/04 10:21:57;;;;;;;5.65;2.97;;;2.60;99.90;;;;;;4960648;28;20213;-84
2023/02/04 10:24:26;;;;;;;2.90;2.53;;;2.70;99.90;;;;;;4968058;28;20279;-85
2023/02/04 10:27:04;;;;;;;3.38;2.35;;;2.70;99.90;;;;;;4963783;28;20234;-84
2023/02/04 10:29:58;;;;;;;2.95;2.20;;;2.70;99.90;;;;;;4963497;28;20248;-84
2023/02/04 10:32:32;;;;;;;3.35;2.70;;;2.70;99.90;;;;;;4961851;29;20220;-84
2023/02/04 10:35:01;;;;;;;2.72;2.35;;;2.60;99.90;;;;;;4961283;28;20206;-85
2023/02/04 10:37:33;;;;;;;2.42;2.10;;;2.50;99.90;;;;;;4963933;28;20250;-84
2023/02/04 10:40:01;;;;;;;4.55;2.65;;;2.40;99.90;;;;;;4975803;28;20456;-85
2023/02/04 10:42:29;;;;;;;3.85;2.60;;;2.50;99.90;;;;;;4964916;28;20224;-85
2023/02/04 10:44:57;;;;;;;3.75;2.40;;;2.50;99.90;;;;;;4966955;28;20215;-84
2023/02/04 10:47:26;;;;;;;4.35;2.83;;;2.60;99.90;;;;;;4960399;28;20419;-85
2023/02/04 10:50:06;;;;;;;3.45;3.15;;;2.70;99.90;;;;;;4968189;28;20291;-86
2023/02/04 10:52:42;;;;;;;2.78;2.33;;;3.00;99.90;;;;;;4969483;28;20209;-87
2023/02/04 10:55:16;;;;;;;3.20;1.90;;;3.20;99.90;;;;;;4969502;28;20248;-86
2023/02/04 10:57:48;;;;;;;2.50;2.30;;;3.20;99.90;;;;;;4969399;28;20207;-88
2023/02/04 11:00:21;;;;;;;3.78;2.63;;;3.20;99.90;;;;;;4968699;28;20205;-82
2023/02/04 11:02:48;;;;;;;4.72;3.35;;;3.30;99.90;;;;;;4974178;28;20229;-84
2023/02/04 11:05:23;;;;;;;4.45;2.55;;;3.40;99.90;;;;;;4968285;28;20495;-86
2023/02/04 11:07:52;;;;;;;6.22;2.92;;;3.20;99.90;;;;;;4974792;28;20248;-84
2023/02/04 11:10:27;;;;;;;3.08;2.65;;;3.30;99.90;;;;;;4960268;28;20238;-85
2023/02/04 11:12:57;;;;;;;3.75;2.53;;;3.40;99.90;;;;;;4959338;28;20209;-85
2023/02/04 11:16:11;;;;;;;4.53;1.85;;;3.40;99.90;;;;;;4961645;28;20288;-85
2023/02/04 11:18:58;;;;;;;2.35;1.42;;;3.50;99.90;;;;;;4934624;28;20751;-86
2023/02/04 11:21:32;;;;;;;1.40;1.10;;;3.40;99.90;;;;;;4959932;28;20214;-83
2023/02/04 11:24:04;;;;;;;3.95;2.22;;;3.30;99.90;;;;;;4967485;28;20489;-86
2023/02/04 11:26:37;;;;;;;3.03;1.75;;;3.20;99.90;;;;;;4968462;28;20249;-83
2023/02/04 11:29:05;;;;;;;1.77;1.67;;;3.20;99.90;;;;;;4964559;28;20254;-84
2023/02/04 11:31:33;;;;;;;3.03;1.50;;;3.20;99.90;;;;;;4962211;29;20213;-86
2023/02/04 11:34:18;;;;;;;3.65;2.00;;;3.10;99.90;;;;;;4966940;28;20205;-87
2023/02/04 11:37:03;;;;;;;7.75;2.00;;;3.00;99.90;;;;;;4964332;28;20271;-85
2023/02/04 11:39:37;;;;;;;2.33;1.90;;;2.90;99.90;;;;;;4970750;28;20216;-84
2023/02/04 11:42:13;;;;;;;3.85;2.13;;;3.00;99.90;;;;;;4965851;28;20217;-86
2023/02/04 11:44:41;;;;;;;2.33;2.03;;;3.20;99.90;;;;;;4970507;28;20205;-84
2023/02/04 11:47:16;;;;;;;3.95;1.95;;;3.00;99.90;;;;;;4967731;28;20602;-88
2023/02/04 11:49:46;;;;;;;4.53;1.42;;;2.90;99.90;;;;;;4964394;28;20240;-84
2023/02/04 11:52:15;;;;;;;1.75;1.40;;;2.80;99.90;;;;;;4970118;28;20213;-86
2023/02/04 11:54:52;;;;;;;3.40;1.70;;;2.60;99.90;;;;;;4964430;28;20284;-86
2023/02/04 11:57:19;;;;;;;2.63;1.75;;;2.50;99.90;;;;;;4962002;28;20351;-85
2023/02/04 11:59:46;;;;;;;1.77;1.67;;;2.60;99.90;;;;;;4960017;29;20547;-84
2023/02/04 12:02:19;;;;;;;3.28;1.60;;;2.80;99.90;;;;;;4967179;28;20239;-86
2023/02/04 12:04:55;;;;;;;4.90;1.75;;;2.80;99.90;;;;;;4968213;28;20217;-84
2023/02/04 12:07:27;;;;;;;3.35;1.52;;;2.50;99.90;;;;;;4965300;28;20199;-86
2023/02/04 12:09:56;;;;;;;3.47;1.80;;;2.50;99.90;;;;;;4965611;28;20298;-86
2023/02/04 12:12:28;;;;;;;1.50;1.40;;;2.50;99.90;;;;;;4969725;28;20274;-87
2023/02/04 12:15:22;;;;;;;2.75;2.22;;;2.40;99.90;;;;;;4964864;28;20197;-86
2023/02/04 12:18:15;;;;;;;2.20;1.58;;;2.20;99.90;;;;;;4959135;28;20322;-89
2023/02/04 12:20:42;;;;;;;2.35;1.77;;;2.10;99.90;;;;;;4961264;28;20199;-85
2023/02/04 12:23:09;;;;;;;3.25;1.95;;;2.00;99.90;;;;;;4966162;28;20196;-86
2023/02/04 12:25:36;;;;;;;1.75;1.48;;;1.90;99.90;;;;;;4968645;28;20218;-89
2023/02/04 12:28:04;;;;;;;2.85;1.95;;;1.90;99.90;;;;;;4963732;28;20264;-84
2023/02/04 12:30:34;;;;;;;1.77;1.40;;;2.10;99.90;;;;;;4967021;28;20251;-84
2023/02/04 12:33:08;;;;;;;3.55;2.28;;;2.20;99.90;;;;;;4964489;28;20244;-87
2023/02/04 12:35:35;;;;;;;2.42;1.88;;;2.30;99.90;;;;;;4962501;28;20264;-85
2023/02/04 12:38:04;;;;;;;1.50;1.40;;;2.40;99.90;;;;;;4964244;28;20464;-89
2023/02/04 12:40:32;;;;;;;1.77;1.65;;;2.50;99.90;;;;;;4970239;28;20239;-87
2023/02/04 12:43:01;;;;;;;8.18;2.38;;;2.50;99.90;;;;;;4966575;28;20204;-85
2023/02/04 12:45:31;;;;;;;4.82;1.98;;;2.60;99.90;;;;;;4965781;28;20212;-87
2023/02/04 12:48:04;;;;;;;2.95;1.20;;;2.40;99.90;;;;;;4964749;28;20457;-86
2023/02/04 12:50:31;;;;;;;3.95;2.60;;;2.40;99.90;;;;;;4975590;28;20230;-85
2023/02/04 12:52:58;;;;;;;1.83;1.20;;;2.40;99.90;;;;;;4980608;28;20208;-84
2023/02/04 12:55:29;;;;;;;4.07;2.20;;;2.40;99.90;;;;;;4976127;28;20257;-84
2023/02/04 12:57:57;;;;;;;3.13;1.60;;;2.40;99.90;;;;;;4978781;28;20207;-88
2023/02/04 13:00:26;;;;;;;2.75;2.08;;;2.30;99.90;;;;;;4970523;28;20228;-89
2023/02/04 13:02:54;;;;;;;2.22;1.52;;;2.30;99.90;;;;;;4968682;28;20242;-87
2023/02/04 13:05:24;;;;;;;3.80;2.45;;;2.20;99.90;;;;;;4977542;28;20216;-90
2023/02/04 13:07:52;;;;;;;3.35;1.73;;;2.10;99.90;;;;;;4961219;28;20499;-88
2023/02/04 13:10:22;;;;;;;3.30;1.40;;;2.10;99.90;;;;;;4963878;28;20413;-85